Time;durP1;ratioP1;P1;durP2;ratioP2;P2;SDS_P1;SDS_P2;PMS_P1;PMS_P2;Temp;Humidity;BMP_temperature;BMP_pressure;BME280_temperature;BME280_humidity;BME280_pressure;Samples;Min_cycle;Max_cycle;Signal;HPM_P1;HPM_P2
2022/12/14 00:01:22;;;;;;;23.63;11.65;;;;;;;-144.47;86.97;63048.44;4992722;28;20095;-69
2022/12/14 00:03:48;;;;;;;17.00;8.50;;;;;;;-144.47;86.82;63092.25;4989761;28;20031;-71
2022/12/14 00:06:18;;;;;;;26.00;9.68;;;;;;;-144.47;86.81;63094.25;4986927;28;20041;-69
2022/12/14 00:08:45;;;;;;;25.17;11.60;;;;;;;-144.47;86.67;63056.41;4987448;28;20459;-70
2022/12/14 00:11:11;;;;;;;20.50;10.40;;;;;;;-144.47;86.84;63084.28;4993339;28;20070;-70
2022/12/14 00:13:37;;;;;;;26.15;10.88;;;;;;;-144.47;86.56;63076.31;4990096;28;20034;-69
2022/12/14 00:16:11;;;;;;;22.52;12.38;;;;;;;-144.47;86.47;63080.31;4992025;28;20030;-72
2022/12/14 00:18:37;;;;;;;25.25;10.85;;;;;;;-144.47;86.44;63072.34;4987423;28;20034;-71
2022/12/14 00:21:08;;;;;;;19.33;10.07;;;;;;;-144.47;86.25;63074.34;4989719;28;20101;-70
2022/12/14 00:23:35;;;;;;;26.83;9.30;;;;;;;-144.47;86.13;63086.28;4990775;28;20591;-70
2022/12/14 00:26:16;;;;;;;20.23;9.30;;;;;;;-144.47;86.27;63110.19;4991495;28;20072;-70
2022/12/14 00:28:43;;;;;;;20.42;9.70;;;;;;;-144.47;85.78;63088.28;4990800;28;20065;-70
2022/12/14 00:31:09;;;;;;;23.02;10.43;;;;;;;-144.47;85.90;63100.22;4989761;28;20097;-69
2022/12/14 00:33:35;;;;;;;20.17;9.50;;;;;;;-144.47;86.19;63084.28;4974217;28;20034;-69
2022/12/14 00:36:02;;;;;;;21.65;8.80;;;;;;;-144.47;85.75;63104.22;4990039;28;20077;-67
2022/12/14 00:38:27;;;;;;;22.38;9.18;;;;;;;-144.47;86.08;63120.16;4991699;28;20106;-73
2022/12/14 00:40:54;;;;;;;32.38;11.10;;;;;;;-144.47;85.90;63104.22;4991539;28;20096;-68
2022/12/14 00:43:19;;;;;;;22.95;10.05;;;;;;;-144.47;86.05;63136.09;4991116;28;20611;-70
2022/12/14 00:45:45;;;;;;;23.30;9.82;;;;;;;-144.47;85.48;63108.19;4990383;28;20025;-69
2022/12/14 00:48:11;;;;;;;29.88;10.32;;;;;;;-144.47;85.38;63086.28;4990891;28;20029;-68
2022/12/14 00:50:37;;;;;;;22.88;10.20;;;;;;;-144.47;85.63;63086.28;4990688;28;20113;-71
2022/12/14 00:53:03;;;;;;;24.05;9.52;;;;;;;-144.47;85.30;63096.25;4990268;28;20109;-67
2022/12/14 00:55:28;;;;;;;24.35;10.00;;;;;;;-144.47;85.00;63086.28;4990727;28;20022;-71
2022/12/14 00:57:53;;;;;;;23.80;10.55;;;;;;;-144.47;84.99;63098.25;4990803;28;20030;-69
2022/12/14 01:00:19;;;;;;;24.92;10.30;;;;;;;-144.47;84.90;63120.16;4993419;28;20033;-71
2022/12/14 01:02:44;;;;;;;18.42;9.65;;;;;;;-144.47;85.28;63108.19;4991100;28;20034;-70
2022/12/14 01:05:10;;;;;;;28.60;10.32;;;;;;;-144.47;85.81;63122.13;4990250;28;20022;-65
2022/12/14 01:07:36;;;;;;;18.13;9.57;;;;;;;-144.47;85.53;63118.16;4990762;28;20030;-69
2022/12/14 01:10:01;;;;;;;19.17;9.82;;;;;;;-144.47;85.45;63098.25;4990287;28;20095;-68
2022/12/14 01:12:26;;;;;;;20.77;9.55;;;;;;;-144.47;85.72;63138.06;4987145;28;20058;-69
2022/12/14 01:14:52;;;;;;;23.92;10.70;;;;;;;-144.47;85.53;63104.22;4987706;28;20449;-68
2022/12/14 01:17:17;;;;;;;19.23;8.93;;;;;;;-144.47;85.67;63124.13;4990223;28;20030;-70
2022/12/14 01:19:43;;;;;;;22.55;9.95;;;;;;;-144.47;85.76;63140.06;4990109;28;20045;-69
2022/12/14 01:22:10;;;;;;;25.55;10.90;;;;;;;-144.47;85.78;63163.97;4990827;28;20029;-68
2022/12/14 01:24:35;;;;;;;18.27;9.82;;;;;;;-144.47;85.59;63165.97;4990874;28;20073;-69
2022/12/14 01:27:00;;;;;;;24.40;9.82;;;;;;;-144.47;85.50;63191.88;4990417;28;20022;-69
2022/12/14 01:29:26;;;;;;;25.58;10.20;;;;;;;-144.47;85.35;63120.16;4990911;28;20066;-69
2022/12/14 01:31:51;;;;;;;17.67;8.00;;;;;;;-144.47;85.30;63175.94;4989498;28;20492;-68
2022/12/14 01:34:17;;;;;;;19.80;8.02;;;;;;;-144.47;85.43;63152.03;4990730;28;20030;-69
2022/12/14 01:36:43;;;;;;;18.38;9.27;;;;;;;-144.47;85.43;63195.84;4990391;28;20028;-68
2022/12/14 01:39:14;;;;;;;17.08;8.25;;;;;;;-144.47;85.38;63171.94;4990741;28;20046;-71
2022/12/14 01:41:41;;;;;;;18.73;9.27;;;;;;;-144.47;85.46;63187.88;4990730;28;20050;-70
2022/12/14 01:44:06;;;;;;;21.65;10.10;;;;;;;-144.47;85.30;63211.78;4990518;28;20034;-69
2022/12/14 01:46:47;;;;;;;19.00;8.80;;;;;;;-144.47;85.08;63165.97;4989215;28;20045;-69
2022/12/14 01:49:15;;;;;;;14.73;8.20;;;;;;;-144.47;85.06;63221.75;4990996;28;20493;-69
2022/12/14 01:51:47;;;;;;;21.20;9.97;;;;;;;-144.47;84.94;63245.66;4989806;28;20050;-70
2022/12/14 01:54:14;;;;;;;20.27;8.85;;;;;;;-144.47;84.88;63199.84;4990241;28;20764;-70
2022/12/14 01:56:43;;;;;;;18.75;8.88;;;;;;;-144.47;84.71;63203.81;4983662;28;20118;-70
2022/12/14 01:59:15;;;;;;;17.65;8.55;;;;;;;-144.47;84.71;63199.84;4988662;28;20420;-69
2022/12/14 02:01:41;;;;;;;21.33;8.27;;;;;;;-144.47;84.81;63211.78;4989706;28;20018;-70
2022/12/14 02:04:07;;;;;;;18.45;8.57;;;;;;;-144.47;84.84;63225.72;4990232;28;20038;-67
2022/12/14 02:06:36;;;;;;;20.58;8.43;;;;;;;-144.47;84.94;63199.84;4972457;28;20164;-71
2022/12/14 02:09:08;;;;;;;21.92;9.45;;;;;;;-144.47;85.20;63201.81;4989455;28;20081;-70
2022/12/14 02:11:54;;;;;;;19.38;8.90;;;;;;;-144.47;85.48;63257.59;4989909;28;20447;-70
2022/12/14 02:14:19;;;;;;;17.80;9.25;;;;;;;-144.47;85.55;63255.63;4988478;28;20479;-70
2022/12/14 02:16:45;;;;;;;22.70;8.63;;;;;;;-144.47;86.15;63275.53;4995129;28;20026;-69
2022/12/14 02:19:10;;;;;;;16.83;8.52;;;;;;;-144.47;86.10;63283.50;4971412;28;20037;-69
2022/12/14 02:22:04;;;;;;;20.77;9.88;;;;;;;-144.47;85.91;63311.41;4996296;28;20054;-72
2022/12/14 02:25:06;;;;;;;19.55;8.98;;;;;;;-144.47;85.81;63317.38;4996600;28;20036;-71
2022/12/14 02:27:56;;;;;;;22.30;9.35;;;;;;;-144.47;85.90;63351.25;4985438;28;20114;-71
2022/12/14 02:30:26;;;;;;;24.35;9.30;;;;;;;-144.47;86.34;63361.22;4995748;28;20484;-69
2022/12/14 02:33:07;;;;;;;14.85;8.38;;;;;;;-144.47;86.35;63415.00;4996585;28;20039;-69
2022/12/14 02:35:38;;;;;;;17.38;8.27;;;;;;;-144.47;85.81;63391.09;4987134;28;20106;-68
2022/12/14 02:38:22;;;;;;;25.42;9.75;;;;;;;-144.47;86.82;63377.16;4998161;28;20089;-67
2022/12/14 02:41:05;;;;;;;15.05;7.57;;;;;;;-144.47;86.52;63442.91;4999454;28;20108;-67
2022/12/14 02:43:46;;;;;;;13.50;7.78;;;;;;;-144.47;86.05;63405.03;4996922;28;20105;-72
2022/12/14 02:46:19;;;;;;;19.02;9.35;;;;;;;-144.47;86.11;63383.13;4989947;28;20625;-70
2022/12/14 02:49:02;;;;;;;26.00;8.68;;;;;;;-144.47;85.76;63403.03;4996379;28;20399;-72
2022/12/14 02:51:27;;;;;;;21.80;9.60;;;;;;;-144.47;85.42;63411.03;4980145;28;20022;-71
2022/12/14 02:54:03;;;;;;;24.02;8.23;;;;;;;-144.47;85.31;63385.13;4979427;28;20053;-67
2022/12/14 02:56:35;;;;;;;18.10;9.10;;;;;;;-144.47;85.30;63399.06;4995850;28;20081;-70
2022/12/14 02:59:02;;;;;;;20.95;8.45;;;;;;;-144.47;84.69;63359.22;4997093;28;20018;-72
2022/12/14 03:01:29;;;;;;;17.38;9.02;;;;;;;-144.47;84.56;63319.38;4995676;28;20026;-70
2022/12/14 03:03:54;;;;;;;23.08;9.23;;;;;;;-144.47;84.33;63325.34;4995474;28;20018;-70
2022/12/14 03:06:27;;;;;;;15.98;8.32;;;;;;;-144.47;84.58;63311.41;4979450;28;20033;-71
2022/12/14 03:08:56;;;;;;;19.95;8.88;;;;;;;-144.47;84.74;63341.28;4996875;28;20098;-72
2022/12/14 03:11:48;;;;;;;19.25;8.30;;;;;;;-144.47;84.71;63351.25;4996795;28;20109;-71
2022/12/14 03:14:21;;;;;;;19.23;9.48;;;;;;;-144.47;85.08;63391.09;4983076;28;20038;-71
2022/12/14 03:16:49;;;;;;;21.42;9.23;;;;;;;-144.47;84.91;63367.19;4978683;28;20034;-71
2022/12/14 03:19:27;;;;;;;22.50;9.65;;;;;;;-144.47;85.10;63347.25;4996543;28;20034;-70
2022/12/14 03:22:02;;;;;;;23.20;10.52;;;;;;;-144.47;84.85;63327.34;4996174;28;20034;-68
2022/12/14 03:24:34;;;;;;;22.42;10.88;;;;;;;-144.47;84.25;63335.31;4996156;28;20061;-70
2022/12/14 03:27:01;;;;;;;18.85;8.80;;;;;;;-144.47;83.79;63367.19;4992908;28;20018;-71
2022/12/14 03:29:37;;;;;;;22.02;8.20;;;;;;;-144.47;83.37;63323.34;4992547;28;20034;-66
2022/12/14 03:32:09;;;;;;;19.27;7.82;;;;;;;-144.47;83.45;63293.47;5043879;23;20045;-70
2022/12/14 03:34:41;;;;;;;20.02;9.23;;;;;;;-144.47;83.39;63321.38;5023373;28;20395;-71
2022/12/14 03:37:12;;;;;;;21.35;9.50;;;;;;;-144.47;83.34;63283.50;5023254;28;20064;-70
2022/12/14 03:39:40;;;;;;;15.75;7.70;;;;;;;-144.47;83.54;63293.47;5021156;28;20090;-70
2022/12/14 03:42:08;;;;;;;23.42;8.05;;;;;;;-144.47;83.08;63273.53;5012942;28;20040;-72
2022/12/14 03:44:41;;;;;;;16.85;7.90;;;;;;;-144.47;82.99;63275.53;5008605;28;20040;-67
2022/12/14 03:47:16;;;;;;;16.63;8.70;;;;;;;-144.47;83.33;63291.47;5010013;28;20018;-69
2022/12/14 03:50:05;;;;;;;19.08;8.15;;;;;;;-144.47;83.78;63287.50;5010447;28;20145;-68
2022/12/14 03:52:54;;;;;;;15.05;8.00;;;;;;;-144.47;84.05;63305.44;5009987;28;20022;-69
2022/12/14 03:55:37;;;;;;;16.95;6.70;;;;;;;-144.47;83.76;63311.41;5009657;28;20053;-68
2022/12/14 03:58:35;;;;;;;17.65;8.07;;;;;;;-144.47;83.14;63345.28;5009318;28;20034;-65
2022/12/14 04:01:37;;;;;;;14.52;7.07;;;;;;;-144.47;82.67;63297.47;5009814;28;20383;-70
2022/12/14 04:04:11;;;;;;;18.00;7.88;;;;;;;-144.47;82.79;63291.47;5008464;28;20037;-70
2022/12/14 04:06:47;;;;;;;20.05;7.68;;;;;;;-144.47;82.64;63311.41;5009580;28;20030;-73
2022/12/14 04:09:15;;;;;;;17.85;7.90;;;;;;;-144.47;82.77;63273.53;5010149;28;20030;-64
2022/12/14 04:20:44;;;;;;;17.40;7.30;;;;;;;-144.47;82.74;63279.53;5009667;28;20121;-68
2022/12/14 04:26:01;;;;;;;15.77;8.30;;;;;;;-144.47;83.00;63279.53;4995144;28;20052;-70
2022/12/14 04:26:04;;;;;;;22.13;7.57;;;;;;;-144.47;83.12;63303.44;5008541;28;20091;-71
2022/12/14 04:31:34;;;;;;;16.95;6.65;;;;;;;-144.47;83.29;63251.63;5009693;28;20052;-70
2022/12/14 04:34:03;;;;;;;15.17;6.63;;;;;;;-144.47;82.97;63233.69;5007834;28;20032;-68
2022/12/14 04:36:44;;;;;;;19.27;8.10;;;;;;;-144.47;82.68;63243.66;5008467;28;20286;-69
2022/12/14 04:39:39;;;;;;;15.18;7.05;;;;;;;-144.47;82.57;63249.63;5007884;28;20500;-67
2022/12/14 04:42:07;;;;;;;12.20;6.35;;;;;;;-144.47;82.45;63207.81;5008431;28;20101;-67
2022/12/14 04:44:43;;;;;;;15.82;7.32;;;;;;;-144.47;82.32;63201.81;5008967;28;20117;-68
2022/12/14 04:47:13;;;;;;;15.45;7.55;;;;;;;-144.47;82.22;63187.88;5009326;28;20456;-69
2022/12/14 04:49:47;;;;;;;14.23;6.18;;;;;;;-144.47;82.26;63148.03;5009650;28;20117;-69
2022/12/14 04:52:26;;;;;;;11.43;6.10;;;;;;;-144.47;82.56;63134.09;5008494;28;20031;-69
2022/12/14 04:55:01;;;;;;;13.02;6.47;;;;;;;-144.47;82.35;63128.13;5008639;28;20118;-69
2022/12/14 04:57:50;;;;;;;12.70;6.70;;;;;;;-144.47;82.38;63140.06;5007497;28;20039;-69
2022/12/14 05:00:15;;;;;;;17.83;6.45;;;;;;;-144.47;82.46;63100.22;5009174;28;20038;-69
2022/12/14 05:03:24;;;;;;;16.17;7.22;;;;;;;-144.47;82.79;63144.06;5007510;28;20052;-68
2022/12/14 05:06:12;;;;;;;17.92;9.02;;;;;;;-144.47;82.82;63128.13;5006174;28;20026;-70
2022/12/14 05:08:55;;;;;;;17.10;8.15;;;;;;;-144.47;82.95;63112.19;5007533;28;20569;-67
2022/12/14 05:11:23;;;;;;;17.85;8.65;;;;;;;-144.47;83.31;63090.28;5009466;28;20579;-69
2022/12/14 05:13:50;;;;;;;17.83;7.13;;;;;;;-144.47;83.14;63040.47;5002621;28;20044;-70
2022/12/14 05:16:17;;;;;;;23.02;8.82;;;;;;;-144.47;83.27;63042.47;5009000;28;20030;-67
2022/12/14 05:18:43;;;;;;;19.40;8.18;;;;;;;-144.47;83.62;63018.56;5008739;28;20147;-66
2022/12/14 05:21:45;;;;;;;14.98;6.65;;;;;;;-144.47;83.68;63018.56;5007358;28;20037;-69
2022/12/14 05:24:00;;;;;;;17.25;8.43;;;;;;;-144.47;83.56;63046.44;5008114;28;20026;-66
2022/12/14 05:26:26;;;;;;;20.30;7.75;;;;;;;-144.47;83.37;63022.53;5007521;28;20053;-65
2022/12/14 05:28:51;;;;;;;18.95;9.85;;;;;;;-144.47;83.29;62944.84;5006871;28;20025;-69
2022/12/14 05:31:16;;;;;;;19.90;9.23;;;;;;;-144.47;83.51;62936.88;5008145;28;20030;-70
2022/12/14 05:33:42;;;;;;;17.38;7.95;;;;;;;-144.47;83.54;62905.00;5008562;28;20033;-69
2022/12/14 05:36:08;;;;;;;17.90;8.45;;;;;;;-144.47;83.19;62877.13;5005591;28;20048;-66
2022/12/14 05:38:34;;;;;;;23.73;8.05;;;;;;;-144.47;83.50;62849.22;5002085;28;20026;-66
2022/12/14 05:40:59;;;;;;;14.52;7.47;;;;;;;-144.47;83.29;62801.41;5005991;28;20018;-70
2022/12/14 05:43:25;;;;;;;21.05;8.18;;;;;;;-144.47;83.42;62805.41;5006902;28;20025;-71
2022/12/14 05:45:57;;;;;;;16.95;8.32;;;;;;;-144.47;84.47;62789.47;5008369;28;20369;-69
2022/12/14 05:48:22;;;;;;;18.50;9.27;;;;;;;-144.47;83.88;62727.72;5005853;28;20120;-70
2022/12/14 05:50:48;;;;;;;14.93;7.97;;;;;;;-144.47;83.75;62729.72;5008053;28;20213;-68
2022/12/14 05:53:13;;;;;;;14.68;7.13;;;;;;;-144.47;84.51;62715.75;5007416;28;20033;-69
2022/12/14 05:55:46;;;;;;;17.80;8.30;;;;;;;-144.47;83.79;62715.75;5007490;28;20046;-69
2022/12/14 05:58:11;;;;;;;16.75;8.20;;;;;;;-144.47;83.56;62693.84;5007116;28;20551;-70
2022/12/14 06:00:36;;;;;;;22.83;9.57;;;;;;;-144.47;83.29;62658.00;5008218;28;20037;-68
2022/12/14 06:03:02;;;;;;;17.73;7.93;;;;;;;-144.47;83.38;62622.16;5006481;28;20036;-70
2022/12/14 06:05:27;;;;;;;16.40;9.10;;;;;;;-144.47;83.12;62606.22;5007870;28;20045;-68
2022/12/14 06:07:53;;;;;;;19.88;8.80;;;;;;;-144.47;83.36;62606.22;5006348;28;20026;-72
2022/12/14 06:10:18;;;;;;;17.27;7.55;;;;;;;-144.47;83.07;62586.28;4998202;28;20025;-71
2022/12/14 06:12:43;;;;;;;18.77;9.15;;;;;;;-144.47;83.17;62546.44;4999193;28;20042;-71
2022/12/14 06:15:09;;;;;;;18.80;8.57;;;;;;;-144.47;83.00;62568.38;5001372;28;20044;-72
2022/12/14 06:17:34;;;;;;;23.33;9.60;;;;;;;-144.47;82.77;62536.50;4995130;28;20029;-70
2022/12/14 06:20:00;;;;;;;26.50;9.77;;;;;;;-144.47;83.14;62532.50;4999727;28;20022;-70
2022/12/14 06:22:25;;;;;;;21.45;10.27;;;;;;;-144.47;83.04;62484.72;4999803;28;20647;-68
2022/12/14 06:24:50;;;;;;;19.92;8.95;;;;;;;-144.47;82.45;62524.53;5000320;28;20487;-70
2022/12/14 06:27:16;;;;;;;18.33;7.85;;;;;;;-144.47;82.69;62490.69;4999127;28;20092;-70
2022/12/14 06:29:41;;;;;;;18.55;7.88;;;;;;;-144.47;82.99;62482.72;4999837;28;20053;-71
2022/12/14 06:32:07;;;;;;;21.35;8.57;;;;;;;-144.47;82.79;62458.81;4997716;28;20014;-73
2022/12/14 06:34:32;;;;;;;16.25;8.15;;;;;;;-144.47;82.81;62472.75;5004847;28;20026;-70
2022/12/14 06:36:57;;;;;;;23.85;10.80;;;;;;;-144.47;82.58;62436.91;5006153;28;20034;-69
2022/12/14 06:39:23;;;;;;;19.85;8.95;;;;;;;-144.47;82.77;62413.00;5006137;28;20127;-69
2022/12/14 06:41:49;;;;;;;22.17;9.13;;;;;;;-144.47;82.82;62395.06;5005352;28;20105;-70
2022/12/14 06:44:15;;;;;;;23.77;9.55;;;;;;;-144.47;82.88;62375.16;5005021;28;20133;-67
2022/12/14 06:46:41;;;;;;;17.48;8.52;;;;;;;-144.47;82.73;62343.28;5005605;28;20105;-70
2022/12/14 06:49:12;;;;;;;13.30;7.32;;;;;;;-144.47;82.92;62243.72;5005693;28;20041;-72
2022/12/14 06:51:39;;;;;;;17.65;8.70;;;;;;;-144.47;82.85;62164.03;5009053;28;20087;-71
2022/12/14 06:54:04;;;;;;;20.98;8.65;;;;;;;-144.47;82.84;62032.59;5007171;28;20172;-68
2022/12/14 06:56:30;;;;;;;22.58;7.93;;;;;;;-144.47;82.77;61903.16;5005777;28;20130;-68
2022/12/14 06:58:56;;;;;;;31.88;9.77;;;;;;;-144.47;82.81;61751.81;5007970;28;20026;-69
2022/12/14 07:01:23;;;;;;;17.60;7.90;;;;;;;-144.47;82.66;61566.63;5009931;28;20144;-71
2022/12/14 07:03:52;;;;;;;22.55;8.35;;;;;;;-144.47;82.77;61477.00;5009150;28;20057;-70
2022/12/14 07:06:18;;;;;;;24.35;9.50;;;;;;;-144.47;82.47;61303.78;5011229;28;20111;-68
2022/12/14 07:08:43;;;;;;;21.63;9.23;;;;;;;-144.47;82.66;61204.22;5007151;28;20069;-68
2022/12/14 07:11:11;;;;;;;20.70;10.00;;;;;;;-144.47;82.76;61086.75;5010233;28;20037;-68
2022/12/14 07:13:37;;;;;;;21.27;7.95;;;;;;;-144.47;82.65;60941.41;5004838;28;20022;-70
2022/12/14 07:16:04;;;;;;;30.00;12.05;;;;;;;-144.47;82.89;60796.09;5010861;28;20030;-69
2022/12/14 07:18:30;;;;;;;24.15;10.43;;;;;;;-144.47;82.93;60692.56;5009869;28;20036;-70
2022/12/14 07:21:08;;;;;;;17.30;8.57;;;;;;;-144.47;82.97;60622.88;5010933;28;20120;-70
2022/12/14 07:23:36;;;;;;;19.35;8.60;;;;;;;-144.47;82.48;60579.09;5002022;28;20492;-71
2022/12/14 07:26:07;;;;;;;25.92;8.63;;;;;;;-144.47;82.26;60527.34;5009815;28;20092;-70
2022/12/14 07:28:35;;;;;;;16.40;8.13;;;;;;;-144.47;82.28;60463.63;5010156;28;20112;-71
2022/12/14 07:31:02;;;;;;;23.98;11.05;;;;;;;-144.47;82.22;60380.03;5009405;28;20085;-66
2022/12/14 07:33:28;;;;;;;19.52;9.45;;;;;;;-144.47;87.67;60376.06;5001888;28;20486;-67
2022/12/14 07:36:10;;;;;;;21.80;10.63;;;;;;;-144.47;85.53;60288.47;5000011;28;20038;-71
2022/12/14 07:38:37;;;;;;;18.42;9.02;;;;;;;-144.47;83.25;60234.72;5004772;28;20044;-71
2022/12/14 07:41:15;;;;;;;19.35;9.73;;;;;;;-144.47;80.75;60180.97;5000798;28;20042;-70
2022/12/14 07:43:42;;;;;;;19.00;8.27;;;;;;;-144.47;79.46;60141.19;5003145;28;20041;-71
2022/12/14 07:46:11;;;;;;;21.83;8.82;;;;;;;-144.47;79.94;60087.44;5001224;28;20045;-66
2022/12/14 07:48:37;;;;;;;20.65;8.38;;;;;;;-144.47;80.14;60011.78;4998649;28;20032;-69
2022/12/14 07:51:08;;;;;;;18.75;8.68;;;;;;;-144.47;79.79;59985.94;5004740;28;20026;-68
2022/12/14 07:53:34;;;;;;;20.42;8.98;;;;;;;-144.47;79.67;59942.13;5001121;28;20163;-69
2022/12/14 07:56:22;;;;;;;19.23;8.55;;;;;;;-144.47;79.94;59948.09;4999716;28;20390;-68
2022/12/14 07:58:47;;;;;;;12.82;7.20;;;;;;;-144.47;79.59;59946.13;5004376;28;20061;-67
2022/12/14 08:01:25;;;;;;;23.40;9.80;;;;;;;-144.47;79.49;59898.34;5007332;28;20071;-71
2022/12/14 08:03:56;;;;;;;15.55;7.15;;;;;;;-144.47;79.23;59866.50;5007839;28;20114;-67
2022/12/14 08:06:23;;;;;;;16.33;8.02;;;;;;;-144.47;79.21;59830.69;4994109;28;20025;-67
2022/12/14 08:08:50;;;;;;;20.80;9.40;;;;;;;-144.47;79.28;59800.81;5007928;28;20475;-72
2022/12/14 08:11:16;;;;;;;22.23;10.68;;;;;;;-144.47;78.96;59820.72;5009748;28;20025;-69
2022/12/14 08:13:42;;;;;;;21.77;8.80;;;;;;;-144.47;78.79;59820.72;5005257;28;20057;-67
2022/12/14 08:16:14;;;;;;;19.90;8.95;;;;;;;-144.47;79.67;59832.66;5008267;28;20039;-70
2022/12/14 08:18:40;;;;;;;25.70;10.80;;;;;;;-144.47;79.41;59788.88;5002169;28;20117;-69
2022/12/14 08:21:07;;;;;;;26.58;9.80;;;;;;;-144.47;78.63;59739.13;5007197;28;20106;-68
2022/12/14 08:23:34;;;;;;;18.88;9.40;;;;;;;-144.47;77.52;59719.22;5005177;28;20034;-69
2022/12/14 08:26:00;;;;;;;22.58;8.70;;;;;;;-144.47;77.43;59749.09;5009539;28;20025;-66
2022/12/14 08:28:27;;;;;;;18.92;7.72;;;;;;;-144.47;77.27;59725.19;5006712;28;20049;-69
2022/12/14 08:30:53;;;;;;;18.13;8.43;;;;;;;-144.47;77.28;59699.31;5007788;28;20033;-69
2022/12/14 08:33:19;;;;;;;23.38;9.82;;;;;;;-144.47;77.42;59711.28;5005285;28;20026;-72
2022/12/14 08:35:45;;;;;;;21.92;9.18;;;;;;;-144.47;77.59;59697.34;5008866;28;20030;-68
2022/12/14 08:38:11;;;;;;;21.02;9.57;;;;;;;-144.47;77.20;59691.38;5008659;28;20045;-67
2022/12/14 08:40:37;;;;;;;14.90;7.63;;;;;;;-144.47;76.46;59711.28;5008131;28;20085;-69
2022/12/14 08:43:03;;;;;;;20.27;9.07;;;;;;;-144.47;76.03;59651.56;5009106;28;20101;-68
2022/12/14 08:45:29;;;;;;;22.80;10.98;;;;;;;-144.47;75.86;59647.59;5009023;28;20033;-67
2022/12/14 08:47:59;;;;;;;17.38;8.32;;;;;;;-144.47;75.90;59649.56;5008242;28;20026;-70
2022/12/14 08:50:25;;;;;;;21.30;9.27;;;;;;;-144.47;75.48;59697.34;5009516;28;20030;-70
2022/12/14 08:52:51;;;;;;;18.65;9.35;;;;;;;-144.47;75.71;59663.50;5009099;28;20022;-71
2022/12/14 08:55:19;;;;;;;23.95;8.82;;;;;;;-144.47;75.58;59653.56;5008811;28;20459;-69
2022/12/14 08:57:44;;;;;;;22.08;8.60;;;;;;;-144.47;75.46;59615.75;5008930;28;20642;-70
2022/12/14 09:00:10;;;;;;;21.67;8.35;;;;;;;-144.47;75.76;59625.69;5008371;28;20076;-68
2022/12/14 09:02:36;;;;;;;16.55;8.32;;;;;;;-144.47;75.29;59595.84;5008827;28;20022;-70
2022/12/14 09:05:01;;;;;;;18.88;8.10;;;;;;;-144.47;75.16;59615.75;5008037;28;20033;-72
2022/12/14 09:07:28;;;;;;;19.63;8.35;;;;;;;-144.47;74.93;59593.84;5008020;28;20147;-70
2022/12/14 09:09:53;;;;;;;18.98;8.75;;;;;;;-144.47;74.83;59552.06;5008739;28;20040;-66
2022/12/14 09:12:19;;;;;;;20.33;8.27;;;;;;;-144.47;75.30;59599.81;5007692;28;20043;-66
2022/12/14 09:14:48;;;;;;;19.92;9.90;;;;;;;-144.47;75.19;59591.84;5007285;28;20047;-70
2022/12/14 09:17:14;;;;;;;26.73;10.10;;;;;;;-144.47;75.14;59538.13;5000462;28;20026;-67
2022/12/14 09:19:39;;;;;;;24.65;9.80;;;;;;;-144.47;75.41;59585.88;5007973;28;20460;-66
2022/12/14 09:22:05;;;;;;;24.50;9.77;;;;;;;-144.47;75.65;59575.94;5008187;28;20104;-68
2022/12/14 09:24:30;;;;;;;22.40;9.15;;;;;;;-144.47;74.54;59552.06;5008119;28;20498;-68
2022/12/14 09:26:59;;;;;;;19.85;8.90;;;;;;;-144.47;75.62;59556.03;5007932;28;20022;-71
2022/12/14 09:29:24;;;;;;;19.75;9.75;;;;;;;-144.47;74.56;59528.19;5006315;28;20036;-70
2022/12/14 09:31:49;;;;;;;21.85;10.38;;;;;;;-144.47;73.94;59538.13;5033214;22;20133;-69
2022/12/14 09:34:15;;;;;;;22.08;8.45;;;;;;;-144.47;74.14;59544.09;5031456;28;20033;-69
2022/12/14 09:36:41;;;;;;;21.42;9.85;;;;;;;-144.47;74.92;59522.22;5030950;28;20142;-67
2022/12/14 09:39:06;;;;;;;34.28;10.15;;;;;;;-144.47;74.29;59542.09;5031624;28;20045;-69
2022/12/14 09:41:34;;;;;;;21.35;10.13;;;;;;;-144.47;74.09;59518.22;5031558;28;20083;-70
2022/12/14 09:44:23;;;;;;;23.65;9.85;;;;;;;-144.47;73.34;59488.38;5014745;28;20083;-69
2022/12/14 09:47:01;;;;;;;27.88;10.48;;;;;;;-144.47;73.30;59482.41;5009783;28;20265;-69
2022/12/14 09:49:47;;;;;;;34.97;11.38;;;;;;;-144.47;72.47;59502.31;5017831;28;20040;-68
2022/12/14 09:52:20;;;;;;;26.10;11.30;;;;;;;-144.47;72.97;59514.25;5031937;28;20025;-69
2022/12/14 09:54:47;;;;;;;16.58;8.73;;;;;;;-144.47;71.88;59492.34;5020678;28;20032;-70
2022/12/14 09:57:28;;;;;;;23.48;10.18;;;;;;;-144.47;72.72;59488.38;5024252;28;20030;-68
2022/12/14 09:59:54;;;;;;;22.98;10.57;;;;;;;-144.47;72.46;59492.34;5024289;28;20286;-69
2022/12/14 10:02:41;;;;;;;26.63;11.10;;;;;;;-144.47;72.55;59494.34;5022548;28;20227;-65
2022/12/14 10:05:37;;;;;;;24.98;8.75;;;;;;;-144.47;71.93;59492.34;5016704;28;20060;-69
2022/12/14 10:08:09;;;;;;;28.63;13.02;;;;;;;-144.47;72.52;59442.59;5017473;28;20128;-69
2022/12/14 10:11:05;;;;;;;22.33;11.15;;;;;;;-144.47;72.16;59452.56;5026620;28;20415;-69
2022/12/14 10:13:41;;;;;;;21.10;9.15;;;;;;;-144.47;71.94;59446.59;5018204;28;20021;-69
2022/12/14 10:16:06;;;;;;;28.15;10.68;;;;;;;-144.47;72.08;59440.63;5016286;28;20041;-68
2022/12/14 10:18:57;;;;;;;47.10;16.23;;;;;;;-144.47;70.93;59448.56;5012465;28;20029;-67
2022/12/14 10:21:27;;;;;;;61.20;19.02;;;;;;;-144.47;71.73;59460.53;5027048;28;20064;-70
2022/12/14 10:23:59;;;;;;;36.72;13.98;;;;;;;-144.47;71.24;59444.59;5014313;28;20017;-68
2022/12/14 10:26:41;;;;;;;22.27;10.68;;;;;;;-144.47;70.90;59436.63;5016566;28;20026;-71
2022/12/14 10:29:33;;;;;;;28.55;11.38;;;;;;;-144.47;70.28;59428.69;5020284;28;20025;-70
2022/12/14 10:32:06;;;;;;;31.73;12.10;;;;;;;-144.47;70.09;59458.53;5015996;28;20038;-71
2022/12/14 10:34:33;;;;;;;30.80;11.57;;;;;;;-144.47;69.72;59446.59;5030528;28;20022;-70
2022/12/14 10:37:17;;;;;;;34.85;13.77;;;;;;;-144.47;68.66;59424.69;5030789;28;20487;-68
2022/12/14 10:39:54;;;;;;;29.23;10.60;;;;;;;-144.47;69.17;59414.75;5033638;28;20029;-69
2022/12/14 10:42:43;;;;;;;24.17;10.27;;;;;;;-144.47;69.06;59410.78;5022106;28;20029;-68
2022/12/14 10:45:20;;;;;;;28.03;12.40;;;;;;;-144.47;69.00;59458.53;5026566;28;20026;-70
2022/12/14 10:47:50;;;;;;;42.50;15.07;;;;;;;-144.47;69.19;59450.56;5025628;28;20105;-67
2022/12/14 10:50:42;;;;;;;49.13;17.20;;;;;;;-144.47;68.80;59410.78;5038962;28;20041;-67
2022/12/14 10:53:16;;;;;;;32.38;13.40;;;;;;;-144.47;68.87;59436.63;5027682;28;20018;-67
2022/12/14 10:55:44;;;;;;;25.27;10.18;;;;;;;-144.47;68.57;59392.84;5035518;28;20021;-68
2022/12/14 10:58:10;;;;;;;26.33;9.98;;;;;;;-144.47;68.48;59414.75;5022815;28;20054;-67
2022/12/14 11:00:36;;;;;;;32.60;11.07;;;;;;;-144.47;68.37;59408.78;5031994;28;20525;-67
2022/12/14 11:03:01;;;;;;;36.13;13.57;;;;;;;-144.47;68.22;59406.78;5020564;28;20120;-69
2022/12/14 11:05:27;;;;;;;26.10;12.18;;;;;;;-144.47;68.40;59406.78;5021139;28;20029;-68
2022/12/14 11:07:52;;;;;;;25.60;11.65;;;;;;;-144.47;67.38;59414.75;5022449;28;20142;-71
2022/12/14 11:10:19;;;;;;;24.50;10.55;;;;;;;-144.47;67.46;59396.84;5028973;28;20112;-67
2022/12/14 11:13:05;;;;;;;21.98;9.55;;;;;;;-144.47;67.12;59450.56;5007839;28;20030;-70
2022/12/14 11:15:33;;;;;;;25.70;10.60;;;;;;;-144.47;67.31;59438.63;5010688;28;20044;-69
2022/12/14 11:18:14;;;;;;;31.25;15.88;;;;;;;-144.47;67.18;59436.63;5015560;28;20447;-72
2022/12/14 11:20:50;;;;;;;23.88;10.73;;;;;;;-144.47;67.21;59456.53;5035270;28;20021;-70
2022/12/14 11:23:28;;;;;;;22.73;11.02;;;;;;;-144.47;67.67;59436.63;5029145;28;20025;-68
2022/12/14 11:25:59;;;;;;;36.58;11.25;;;;;;;-144.47;67.21;59466.50;5016166;28;20029;-69
2022/12/14 11:28:48;;;;;;;31.23;12.95;;;;;;;-144.47;67.06;59428.69;5025543;28;20026;-69
2022/12/14 11:31:19;;;;;;;24.00;11.07;;;;;;;-144.47;67.50;59436.63;5027996;28;20030;-70
2022/12/14 11:33:48;;;;;;;23.52;12.02;;;;;;;-144.47;67.40;59448.56;5025286;28;20052;-70
2022/12/14 11:36:35;;;;;;;25.15;11.73;;;;;;;-144.47;68.11;59436.63;5034411;28;20037;-68